^^
Datos históricos de la estación: Murcia-Puente Tocinos
Diario Informe para Junio 22, 2019 Unidades:  Ambas    Ingés   Métrico
Diario Semanal Mensual Anual
  Máxima: Mínima: Promedio:
Temperatura: 57 °F /  13.9 °C 43.9 °F /  6.6 °C 50.9 °F /  10.5 °C
Punto de rocio: 36.1 °F /  2.3 °C 26.6 °F /  -3 °C 30 °F /  -1.1 °C
Humedad: 52.7% 35.6% 45%
Velocidad viento: 11.8mph /  19km/h - 5.8mph /  9.3km/h
Racha viento: 23mph /  37km/h - -
Viento- - OSO
Presión: 30.1 in /  1018.7 hPa 29.8 in /  1010.6 hPa -
Precipitación: 0 in /  0.0 mm    
 
 
Tabla de datos para Junio 22, 2019
Hora Temperatura Punto de rocio Presión Viento Velocidad viento Racha viento Humedad Intensidad lluvia(por hora) Nubes
00:04 48.7 °F /  9.3 °C 29.5 °F /  -1.4 °C 30.1in /  1018.5hPa Oeste 5.9mph /  9.5km/h 11mph /  17.7km/h 47% 0in /  0.0mm
00:09 48.7 °F /  9.3 °C 29.3 °F /  -1.5 °C 30.1in /  1018.5hPa Oeste 6.5mph /  10.5km/h 11.8mph /  19km/h 47% 0in /  0.0mm
00:14 48.6 °F /  9.2 °C 29.1 °F /  -1.6 °C 30.1in /  1018.5hPa Oeste 6.9mph /  11.1km/h 12mph /  19.3km/h 47% 0in /  0.0mm
00:19 48.6 °F /  9.2 °C 29.1 °F /  -1.6 °C 30.1in /  1018.6hPa Oeste 6.6mph /  10.6km/h 10.4mph /  16.7km/h 47% 0in /  0.0mm
00:24 48.7 °F /  9.3 °C 29.5 °F /  -1.4 °C 30.1in /  1018.6hPa Oeste 6.4mph /  10.3km/h 10.4mph /  16.7km/h 47% 0in /  0.0mm
00:29 48.7 °F /  9.3 °C 29.5 °F /  -1.4 °C 30.1in /  1018.6hPa Oeste 6.1mph /  9.8km/h 10mph /  16.1km/h 47% 0in /  0.0mm
00:34 48.7 °F /  9.3 °C 29.5 °F /  -1.4 °C 30.1in /  1018.7hPa OSO 5.9mph /  9.5km/h 9mph /  14.5km/h 47% 0in /  0.0mm
00:39 48.7 °F /  9.3 °C 29.5 °F /  -1.4 °C 30.1in /  1018.7hPa OSO 5mph /  8km/h 11.4mph /  18.3km/h 47% 0in /  0.0mm
00:44 48.7 °F /  9.3 °C 29.3 °F /  -1.5 °C 30.1in /  1018.7hPa OSO 4.3mph /  6.9km/h 12mph /  19.3km/h 47% 0in /  0.0mm
00:49 48.6 °F /  9.2 °C 29.3 °F /  -1.5 °C 30.1in /  1018.7hPa Oeste 5mph /  8km/h 9.2mph /  14.8km/h 47.4% 0in /  0.0mm
00:54 48.2 °F /  9 °C 29.5 °F /  -1.4 °C 30.1in /  1018.6hPa Oeste 5.4mph /  8.7km/h 10.4mph /  16.7km/h 48% 0in /  0.0mm
00:59 48 °F /  8.9 °C 29.1 °F /  -1.6 °C 30.1in /  1018.6hPa Oeste 5.4mph /  8.7km/h 10.4mph /  16.7km/h 48% 0in /  0.0mm
01:04 48 °F /  8.9 °C 29.3 °F /  -1.5 °C 30.1in /  1018.6hPa Oeste 5.4mph /  8.7km/h 10mph /  16.1km/h 48% 0in /  0.0mm
01:09 48.2 °F /  9 °C 29.5 °F /  -1.4 °C 30.1in /  1018.5hPa Oeste 5.7mph /  9.2km/h 10mph /  16.1km/h 48% 0in /  0.0mm
01:14 48.2 °F /  9 °C 29.3 °F /  -1.5 °C 30.1in /  1018.5hPa Oeste 5.9mph /  9.5km/h 10.4mph /  16.7km/h 48% 0in /  0.0mm
01:19 48 °F /  8.9 °C 29.3 °F /  -1.5 °C 30.1in /  1018.5hPa Oeste 5.9mph /  9.5km/h 10mph /  16.1km/h 48% 0in /  0.0mm
01:24 48 °F /  8.9 °C 29.1 °F /  -1.6 °C 30.1in /  1018.5hPa Oeste 5.9mph /  9.5km/h 9.2mph /  14.8km/h 48% 0in /  0.0mm
01:29 48 °F /  8.9 °C 29.1 °F /  -1.6 °C 30.1in /  1018.5hPa Oeste 5.6mph /  9km/h 9mph /  14.5km/h 48% 0in /  0.0mm
01:34 47.8 °F /  8.8 °C 29.1 °F /  -1.6 °C 30.1in /  1018.5hPa Oeste 5.4mph /  8.7km/h 8mph /  12.9km/h 48% 0in /  0.0mm
01:39 47.8 °F /  8.8 °C 29.1 °F /  -1.6 °C 30.1in /  1018.4hPa ONO 5.3mph /  8.5km/h 9.2mph /  14.8km/h 48% 0in /  0.0mm
01:44 47.8 °F /  8.8 °C 28.6 °F /  -1.9 °C 30.1in /  1018.4hPa ONO 5.2mph /  8.4km/h 9.2mph /  14.8km/h 47% 0in /  0.0mm
01:49 48 °F /  8.9 °C 28.8 °F /  -1.8 °C 30.1in /  1018.4hPa ONO 5.8mph /  9.3km/h 9.2mph /  14.8km/h 47% 0in /  0.0mm
01:54 47.8 °F /  8.8 °C 28.6 °F /  -1.9 °C 30.1in /  1018.1hPa NO 6.2mph /  10km/h 9mph /  14.5km/h 47% 0in /  0.0mm
01:59 47.7 °F /  8.7 °C 28.4 °F /  -2 °C 30.1in /  1018.1hPa NO 5.5mph /  8.9km/h 8.5mph /  13.7km/h 47% 0in /  0.0mm
02:04 47.8 °F /  8.8 °C 28.6 °F /  -1.9 °C 30.1in /  1018.1hPa ONO 5.2mph /  8.4km/h 10.4mph /  16.7km/h 47% 0in /  0.0mm
02:09 47.8 °F /  8.8 °C 28.6 °F /  -1.9 °C 30.1in /  1018.0hPa ONO 5.7mph /  9.1km/h 10mph /  16.1km/h 47% 0in /  0.0mm
02:14 47.7 °F /  8.7 °C 28.6 °F /  -1.9 °C 30.1in /  1018.0hPa Oeste 5.9mph /  9.5km/h 9.2mph /  14.8km/h 47.5% 0in /  0.0mm
02:19 47.5 °F /  8.6 °C 28.8 °F /  -1.8 °C 30.1in /  1018.0hPa OSO 4.8mph /  7.8km/h 7mph /  11.3km/h 48% 0in /  0.0mm
02:24 47.3 °F /  8.5 °C 28.6 °F /  -1.9 °C 30.1in /  1017.9hPa Oeste 4mph /  6.5km/h 5.9mph /  9.5km/h 48% 0in /  0.0mm
02:29 47.3 °F /  8.5 °C 28.6 °F /  -1.9 °C 30.1in /  1017.9hPa Oeste 3.5mph /  5.6km/h 6.9mph /  11.1km/h 48% 0in /  0.0mm
02:34 47.3 °F /  8.5 °C 28.6 °F /  -1.9 °C 30.1in /  1017.9hPa Oeste 3.1mph /  5km/h 9.2mph /  14.8km/h 48% 0in /  0.0mm
02:39 47.5 °F /  8.6 °C 28.8 °F /  -1.8 °C 30.1in /  1017.8hPa OSO 3.8mph /  6.1km/h 9mph /  14.5km/h 48% 0in /  0.0mm
02:44 47.3 °F /  8.5 °C 28.9 °F /  -1.7 °C 30.1in /  1017.8hPa OSO 4.3mph /  6.9km/h 8mph /  12.9km/h 48.8% 0in /  0.0mm
02:49 46.9 °F /  8.3 °C 28.9 °F /  -1.7 °C 30.1in /  1017.8hPa Oeste 4.1mph /  6.6km/h 7mph /  11.3km/h 49.2% 0in /  0.0mm
02:54 46.8 °F /  8.2 °C 29.1 °F /  -1.6 °C 30.1in /  1017.6hPa ONO 4mph /  6.5km/h 8.1mph /  13km/h 50% 0in /  0.0mm
02:59 46.9 °F /  8.3 °C 28.9 °F /  -1.7 °C 30.1in /  1017.6hPa ONO 4mph /  6.5km/h 8.5mph /  13.7km/h 49.6% 0in /  0.0mm
03:04 46.9 °F /  8.3 °C 28.9 °F /  -1.7 °C 30.1in /  1017.6hPa OSO 4mph /  6.5km/h 10.7mph /  17.2km/h 49.6% 0in /  0.0mm
03:09 46.8 °F /  8.2 °C 28.9 °F /  -1.7 °C 30.1in /  1017.5hPa OSO 5.1mph /  8.2km/h 11.2mph /  18km/h 50% 0in /  0.0mm
03:14 46.6 °F /  8.1 °C 28.9 °F /  -1.7 °C 30.1in /  1017.5hPa OSO 5.9mph /  9.5km/h 12mph /  19.3km/h 50% 0in /  0.0mm
03:19 46.6 °F /  8.1 °C 28.9 °F /  -1.7 °C 30.1in /  1017.5hPa Oeste 5.9mph /  9.5km/h 12mph /  19.3km/h 50% 0in /  0.0mm
03:24 46.8 °F /  8.2 °C 28.8 °F /  -1.8 °C 30.1in /  1017.5hPa OSO 5.9mph /  9.5km/h 7mph /  11.3km/h 49.6% 0in /  0.0mm
03:29 46.8 °F /  8.2 °C 28.6 °F /  -1.9 °C 30.1in /  1017.5hPa SO 4.8mph /  7.7km/h 7mph /  11.3km/h 49% 0in /  0.0mm
03:34 47.1 °F /  8.4 °C 28.6 °F /  -1.9 °C 30.1in /  1017.5hPa Sur 4mph /  6.5km/h 6.4mph /  10.3km/h 48.2% 0in /  0.0mm
03:39 47.5 °F /  8.6 °C 28.6 °F /  -1.9 °C 30.1in /  1017.5hPa Sur 4.2mph /  6.7km/h 9.2mph /  14.8km/h 47.5% 0in /  0.0mm
03:44 47.8 °F /  8.8 °C 28.6 °F /  -1.9 °C 30.1in /  1017.5hPa SO 4.3mph /  6.9km/h 10.7mph /  17.2km/h 47% 0in /  0.0mm
03:49 47.8 °F /  8.8 °C 28.6 °F /  -1.9 °C 30.1in /  1017.5hPa Oeste 4.8mph /  7.8km/h 11mph /  17.7km/h 47% 0in /  0.0mm
03:54 47.7 °F /  8.7 °C 28.6 °F /  -1.9 °C 30in /  1017.4hPa OSO 5.2mph /  8.4km/h 8.5mph /  13.7km/h 47.4% 0in /  0.0mm
03:59 47.3 °F /  8.5 °C 28.6 °F /  -1.9 °C 30in /  1017.4hPa Oeste 4.4mph /  7.1km/h 9mph /  14.5km/h 48% 0in /  0.0mm
04:04 46.9 °F /  8.3 °C 28.4 °F /  -2 °C 30.1in /  1017.5hPa Oeste 4mph /  6.5km/h 8.1mph /  13km/h 48% 0in /  0.0mm
04:09 46.9 °F /  8.3 °C 28.2 °F /  -2.1 °C 30.1in /  1017.5hPa Oeste 3.8mph /  6.1km/h 11.5mph /  18.5km/h 48% 0in /  0.0mm
04:14 46.8 °F /  8.2 °C 28.4 °F /  -2 °C 30.1in /  1017.5hPa Oeste 3.6mph /  5.8km/h 12mph /  19.3km/h 48.7% 0in /  0.0mm
04:19 46.8 °F /  8.2 °C 28.2 °F /  -2.1 °C 30.1in /  1017.5hPa OSO 4.2mph /  6.8km/h 11.8mph /  19km/h 48.1% 0in /  0.0mm
04:24 46.9 °F /  8.3 °C 28.2 °F /  -2.1 °C 30in /  1017.3hPa Oeste 4.7mph /  7.6km/h 12mph /  19.3km/h 48% 0in /  0.0mm
04:29 46.8 °F /  8.2 °C 28 °F /  -2.2 °C 30in /  1017.3hPa OSO 5.1mph /  8.2km/h 12.7mph /  20.4km/h 48.1% 0in /  0.0mm
04:34 46.8 °F /  8.2 °C 28.4 °F /  -2 °C 30in /  1017.3hPa OSO 5.4mph /  8.7km/h 13mph /  20.9km/h 48.5% 0in /  0.0mm
04:39 46.8 °F /  8.2 °C 28 °F /  -2.2 °C 30in /  1017.3hPa OSO 4.7mph /  7.6km/h 10mph /  16.1km/h 48% 0in /  0.0mm
04:44 46.8 °F /  8.2 °C 28 °F /  -2.2 °C 30in /  1017.3hPa NO 4.3mph /  6.9km/h 10mph /  16.1km/h 48% 0in /  0.0mm
04:49 46.6 °F /  8.1 °C 28 °F /  -2.2 °C 30in /  1017.3hPa NO 3.9mph /  6.3km/h 6mph /  9.7km/h 48.3% 0in /  0.0mm
04:54 46.2 °F /  7.9 °C 28.2 °F /  -2.1 °C 30in /  1017.0hPa ONO 3.6mph /  5.8km/h 6.9mph /  11.1km/h 49% 0in /  0.0mm
04:59 46 °F /  7.8 °C 28 °F /  -2.2 °C 30in /  1017.0hPa SE 3.2mph /  5.1km/h 7mph /  11.3km/h 49.3% 0in /  0.0mm
05:04 46 °F /  7.8 °C 28.4 °F /  -2 °C 30in /  1017.0hPa SE 2.9mph /  4.6km/h 6mph /  9.7km/h 50% 0in /  0.0mm
05:09 45.9 °F /  7.7 °C 28.2 °F /  -2.1 °C 30in /  1017.0hPa Sur 2.6mph /  4.2km/h 6.9mph /  11.1km/h 50% 0in /  0.0mm
05:14 45.9 °F /  7.7 °C 28.4 °F /  -2 °C 30in /  1017.0hPa SSE 2.4mph /  3.9km/h 7mph /  11.3km/h 50.1% 0in /  0.0mm
05:19 45.7 °F /  7.6 °C 28.4 °F /  -2 °C 30in /  1017.0hPa Sur 2.7mph /  4.3km/h 5.9mph /  9.5km/h 50.6% 0in /  0.0mm
05:24 45.7 °F /  7.6 °C 28.2 °F /  -2.1 °C 30in /  1017.0hPa SSO 2.9mph /  4.7km/h 6mph /  9.7km/h 50.4% 0in /  0.0mm
05:29 45.5 °F /  7.5 °C 28 °F /  -2.2 °C 30in /  1017.0hPa Oeste 3.3mph /  5.3km/h 8.1mph /  13km/h 50.2% 0in /  0.0mm
05:34 45.7 °F /  7.6 °C 28 °F /  -2.2 °C 30in /  1017.0hPa OSO 3.6mph /  5.8km/h 8mph /  12.9km/h 50% 0in /  0.0mm
05:39 45.3 °F /  7.4 °C 28.2 °F /  -2.1 °C 30in /  1016.8hPa SE 3.3mph /  5.3km/h 6.9mph /  11.1km/h 50.8% 0in /  0.0mm
05:44 45.1 °F /  7.3 °C 28 °F /  -2.2 °C 30in /  1016.8hPa SE 3.1mph /  5km/h 7mph /  11.3km/h 51% 0in /  0.0mm
05:49 45 °F /  7.2 °C 28 °F /  -2.2 °C 30in /  1016.8hPa Sur 3.8mph /  6.1km/h 8.5mph /  13.7km/h 51.3% 0in /  0.0mm
05:54 45 °F /  7.2 °C 27.9 °F /  -2.3 °C 30in /  1016.8hPa SSO 4.3mph /  6.9km/h 9mph /  14.5km/h 51% 0in /  0.0mm
05:59 45.1 °F /  7.3 °C 27.9 °F /  -2.3 °C 30in /  1016.8hPa SO 4.9mph /  7.9km/h 8.1mph /  13km/h 50.8% 0in /  0.0mm
06:04 45 °F /  7.2 °C 27.5 °F /  -2.5 °C 30in /  1016.9hPa SO 5.2mph /  8.4km/h 9.2mph /  14.8km/h 50.3% 0in /  0.0mm
06:09 45.1 °F /  7.3 °C 27.7 °F /  -2.4 °C 30in /  1016.9hPa SO 4.9mph /  7.9km/h 9mph /  14.5km/h 50% 0in /  0.0mm
06:14 45.1 °F /  7.3 °C 27.5 °F /  -2.5 °C 30in /  1016.9hPa OSO 4.7mph /  7.6km/h 8.5mph /  13.7km/h 49.6% 0in /  0.0mm
06:19 45.3 °F /  7.4 °C 27.3 °F /  -2.6 °C 30in /  1017.0hPa Oeste 5mph /  8km/h 13.8mph /  22.2km/h 49% 0in /  0.0mm
06:24 45.7 °F /  7.6 °C 27.1 °F /  -2.7 °C 30in /  1017.0hPa Oeste 5.2mph /  8.4km/h 19.6mph /  31.5km/h 48% 0in /  0.0mm
06:29 46.6 °F /  8.1 °C 27 °F /  -2.8 °C 30in /  1017.0hPa OSO 7.3mph /  11.7km/h 20mph /  32.2km/h 46.3% 0in /  0.0mm
06:34 46.9 °F /  8.3 °C 27.1 °F /  -2.7 °C 30in /  1017.0hPa Oeste 8.7mph /  14km/h 17mph /  27.4km/h 45.8% 0in /  0.0mm
06:39 46.9 °F /  8.3 °C 26.8 °F /  -2.9 °C 30in /  1016.9hPa Oeste 8.3mph /  13.4km/h 13mph /  20.9km/h 45.3% 0in /  0.0mm
06:44 46.9 °F /  8.3 °C 26.8 °F /  -2.9 °C 30in /  1016.9hPa Oeste 8.1mph /  13km/h 12mph /  19.3km/h 45% 0in /  0.0mm
06:49 46.9 °F /  8.3 °C 26.8 °F /  -2.9 °C 30in /  1017.0hPa Oeste 7.4mph /  11.9km/h 13mph /  20.9km/h 45% 0in /  0.0mm
06:54 46.9 °F /  8.3 °C 26.8 °F /  -2.9 °C 30in /  1017.0hPa OSO 6.9mph /  11.1km/h 13mph /  20.9km/h 45% 0in /  0.0mm
06:59 46.9 °F /  8.3 °C 26.8 °F /  -2.9 °C 30in /  1017.0hPa Oeste 6.3mph /  10.1km/h 10.4mph /  16.7km/h 45% 0in /  0.0mm
07:04 46.9 °F /  8.3 °C 26.6 °F /  -3 °C 30in /  1017.1hPa ONO 5.9mph /  9.5km/h 10mph /  16.1km/h 45% 0in /  0.0mm
07:09 46.8 °F /  8.2 °C 27 °F /  -2.8 °C 30in /  1017.1hPa Oeste 4.5mph /  7.3km/h 6mph /  9.7km/h 46% 0in /  0.0mm
07:14 46.4 °F /  8 °C 26.8 °F /  -2.9 °C 30in /  1017.1hPa NO 3.6mph /  5.8km/h 6mph /  9.7km/h 46.2% 0in /  0.0mm
07:19 46.2 °F /  7.9 °C 26.8 °F /  -2.9 °C 30in /  1017.1hPa ONO 3.9mph /  6.2km/h 16.1mph /  25.9km/h 46.4% 0in /  0.0mm
07:24 46.8 °F /  8.2 °C 26.8 °F /  -2.9 °C 30in /  1017.0hPa ONO 4mph /  6.5km/h 18.5mph /  29.8km/h 45.4% 0in /  0.0mm
07:29 46.9 °F /  8.3 °C 26.8 °F /  -2.9 °C 30in /  1017.0hPa ONO 7.5mph /  12.1km/h 19mph /  30.6km/h 45% 0in /  0.0mm
07:34 47.3 °F /  8.5 °C 26.6 °F /  -3 °C 30in /  1017.1hPa ONO 10.2mph /  16.4km/h 19mph /  30.6km/h 44.5% 0in /  0.0mm
07:39 46.9 °F /  8.3 °C 26.8 °F /  -2.9 °C 30in /  1017.1hPa ONO 8.7mph /  14km/h 14mph /  22.5km/h 45% 0in /  0.0mm
07:44 46.8 °F /  8.2 °C 26.8 °F /  -2.9 °C 30in /  1017.1hPa ONO 7.6mph /  12.2km/h 10mph /  16.1km/h 45.4% 0in /  0.0mm
07:49 46.2 °F /  7.9 °C 26.6 °F /  -3 °C 30in /  1017.2hPa ONO 6.6mph /  10.6km/h 10.7mph /  17.2km/h 46.1% 0in /  0.0mm
07:54 45.9 °F /  7.7 °C 26.8 °F /  -2.9 °C 30in /  1017.2hPa NO 5.9mph /  9.5km/h 11mph /  17.7km/h 47% 0in /  0.0mm
07:59 45.5 °F /  7.5 °C 26.8 °F /  -2.9 °C 30in /  1017.2hPa NO 5.5mph /  8.8km/h 8mph /  12.9km/h 47.9% 0in /  0.0mm
08:04 45.1 °F /  7.3 °C 27 °F /  -2.8 °C 30in /  1017.2hPa NO 5.2mph /  8.4km/h 6mph /  9.7km/h 48.6% 0in /  0.0mm
08:09 45 °F /  7.2 °C 27 °F /  -2.8 °C 30in /  1017.2hPa NO 3.9mph /  6.2km/h 6mph /  9.7km/h 49% 0in /  0.0mm
08:14 44.8 °F /  7.1 °C 27 °F /  -2.8 °C 30in /  1017.2hPa ONO 2.9mph /  4.7km/h 5mph /  8km/h 49.2% 0in /  0.0mm
08:19 44.6 °F /  7 °C 27.1 °F /  -2.7 °C 30in /  1017.2hPa ONO 2.9mph /  4.7km/h 5mph /  8km/h 50% 0in /  0.0mm
08:24 44.4 °F /  6.9 °C 27.1 °F /  -2.7 °C 30in /  1017.0hPa OSO 2.9mph /  4.7km/h 5mph /  8km/h 50.4% 0in /  0.0mm
08:29 44.2 °F /  6.8 °C 27.7 °F /  -2.4 °C 30in /  1017.0hPa SE 2.4mph /  3.8km/h 5mph /  8km/h 51.8% 0in /  0.0mm
08:34 44.2 °F /  6.8 °C 27.7 °F /  -2.4 °C 30in /  1017.2hPa ESE 2mph /  3.2km/h 3.5mph /  5.6km/h 52% 0in /  0.0mm
08:39 44.1 °F /  6.7 °C 27.5 °F /  -2.5 °C 30in /  1017.2hPa ESE 1.9mph /  3km/h 4mph /  6.4km/h 51.9% 0in /  0.0mm
08:44 43.9 °F /  6.6 °C 27.3 °F /  -2.6 °C 30in /  1017.2hPa SSE 1.8mph /  2.9km/h 5mph /  8km/h 52% 0in /  0.0mm
08:49 43.9 °F /  6.6 °C 27.3 °F /  -2.6 °C 30in /  1017.2hPa Sur 2.2mph /  3.5km/h 5mph /  8km/h 52% 0in /  0.0mm
08:54 44.2 °F /  6.8 °C 27.9 °F /  -2.3 °C 30in /  1017.2hPa Oeste 2.4mph /  3.9km/h 3.6mph /  5.8km/h 52.4% 0in /  0.0mm
08:59 44.4 °F /  6.9 °C 27.9 °F /  -2.3 °C 30in /  1017.2hPa ONO 1.7mph /  2.8km/h 4mph /  6.4km/h 51.7% 0in /  0.0mm
09:04 45.1 °F /  7.3 °C 28 °F /  -2.2 °C 30in /  1017.2hPa ONO 1.4mph /  2.2km/h 2.4mph /  3.9km/h 50.7% 0in /  0.0mm
09:09 45.9 °F /  7.7 °C 28.2 °F /  -2.1 °C 30in /  1017.2hPa NO 1.6mph /  2.6km/h 4.7mph /  7.6km/h 49.9% 0in /  0.0mm
09:14 46 °F /  7.8 °C 27.9 °F /  -2.3 °C 30in /  1017.2hPa ESE 1.8mph /  2.9km/h 5mph /  8km/h 49% 0in /  0.0mm
09:19 46 °F /  7.8 °C 28 °F /  -2.2 °C 30in /  1017.2hPa SE 2.4mph /  3.9km/h 6.2mph /  10km/h 49% 0in /  0.0mm
09:24 45.9 °F /  7.7 °C 27.9 °F /  -2.3 °C 30in /  1017.1hPa SSE 2.9mph /  4.6km/h 6mph /  9.7km/h 49% 0in /  0.0mm
09:29 45.9 °F /  7.7 °C 27.9 °F /  -2.3 °C 30in /  1017.1hPa SSE 2.9mph /  4.7km/h 5mph /  8km/h 49.1% 0in /  0.0mm
09:34 46 °F /  7.8 °C 27.9 °F /  -2.3 °C 30in /  1017.1hPa SSO 2.9mph /  4.6km/h 5.2mph /  8.4km/h 48.8% 0in /  0.0mm
09:39 46.4 °F /  8 °C 28 °F /  -2.2 °C 30in /  1017.1hPa ONO 2.4mph /  3.8km/h 5mph /  8km/h 48.4% 0in /  0.0mm
09:44 46.6 °F /  8.1 °C 28 °F /  -2.2 °C 30in /  1017.1hPa ONO 2mph /  3.2km/h 5mph /  8km/h 48.1% 0in /  0.0mm
09:49 46.8 °F /  8.2 °C 28.2 °F /  -2.1 °C 30in /  1017.1hPa ONO 2mph /  3.2km/h 5mph /  8km/h 48.5% 0in /  0.0mm
09:54 46.8 °F /  8.2 °C 28.6 °F /  -1.9 °C 30in /  1017.0hPa ONO 2mph /  3.2km/h 5mph /  8km/h 49% 0in /  0.0mm
09:59 46.6 °F /  8.1 °C 28.4 °F /  -2 °C 30in /  1017.0hPa ONO 2.2mph /  3.6km/h 5mph /  8km/h 49% 0in /  0.0mm
10:04 46.8 °F /  8.2 °C 28.6 °F /  -1.9 °C 30in /  1017.0hPa Oeste 2.4mph /  3.9km/h 5.2mph /  8.4km/h 49% 0in /  0.0mm
10:09 46.8 °F /  8.2 °C 29.3 °F /  -1.5 °C 30in /  1016.9hPa NO 2.4mph /  3.9km/h 5.9mph /  9.5km/h 50.3% 0in /  0.0mm
10:14 46.8 °F /  8.2 °C 29.3 °F /  -1.5 °C 30in /  1016.9hPa ONO 2.4mph /  3.9km/h 6mph /  9.7km/h 50.4% 0in /  0.0mm
10:19 46.8 °F /  8.2 °C 29.1 °F /  -1.6 °C 30in /  1017.0hPa Oeste 2.7mph /  4.3km/h 5.2mph /  8.4km/h 50% 0in /  0.0mm
10:24 46.9 °F /  8.3 °C 29.1 °F /  -1.6 °C 30in /  1017.0hPa ONO 2.9mph /  4.7km/h 5mph /  8km/h 50% 0in /  0.0mm
10:29 46.9 °F /  8.3 °C 29.7 °F /  -1.3 °C 30in /  1017.0hPa ONO 2.6mph /  4.2km/h 4mph /  6.4km/h 50.9% 0in /  0.0mm
10:34 46.9 °F /  8.3 °C 29.7 °F /  -1.3 °C 30in /  1017.0hPa ONO 2.4mph /  3.9km/h 4.6mph /  7.4km/h 50.9% 0in /  0.0mm
10:39 47.1 °F /  8.4 °C 28.9 °F /  -1.7 °C 30in /  1016.8hPa OSO 2.4mph /  3.9km/h 6.9mph /  11.1km/h 49.1% 0in /  0.0mm
10:44 47.5 °F /  8.6 °C 29.3 °F /  -1.5 °C 30in /  1016.8hPa Oeste 2.4mph /  3.9km/h 7mph /  11.3km/h 49.3% 0in /  0.0mm
10:49 47.5 °F /  8.6 °C 29.1 °F /  -1.6 °C 30in /  1016.8hPa ONO 2.4mph /  3.9km/h 5mph /  8km/h 48.7% 0in /  0.0mm
10:54 47.7 °F /  8.7 °C 28.4 °F /  -2 °C 30in /  1016.6hPa ONO 2.4mph /  3.9km/h 5mph /  8km/h 47.2% 0in /  0.0mm
10:59 47.8 °F /  8.8 °C 28.8 °F /  -1.8 °C 30in /  1016.6hPa ONO 2.1mph /  3.4km/h 5mph /  8km/h 47.3% 0in /  0.0mm
11:04 48 °F /  8.9 °C 29.1 °F /  -1.6 °C 30in /  1016.6hPa OSO 2mph /  3.2km/h 3.5mph /  5.6km/h 47.5% 0in /  0.0mm
11:09 48.4 °F /  9.1 °C 30.4 °F /  -0.9 °C 30in /  1016.5hPa SSE 1.9mph /  3km/h 4mph /  6.4km/h 49.6% 0in /  0.0mm
11:14 48.6 °F /  9.2 °C 30.7 °F /  -0.7 °C 30in /  1016.5hPa SSE 1.8mph /  2.9km/h 4mph /  6.4km/h 50% 0in /  0.0mm
11:19 48.4 °F /  9.1 °C 30.7 °F /  -0.7 °C 30in /  1016.6hPa SSE 1.8mph /  2.9km/h 4mph /  6.4km/h 50.3% 0in /  0.0mm
11:24 48.6 °F /  9.2 °C 30.7 °F /  -0.7 °C 30in /  1016.6hPa SSE 1.8mph /  2.9km/h 3mph /  4.8km/h 50.1% 0in /  0.0mm
11:29 48.6 °F /  9.2 °C 30.6 °F /  -0.8 °C 30in /  1016.6hPa SSE 0.7mph /  1.2km/h 3.6mph /  5.8km/h 49.6% 0in /  0.0mm
11:34 48.9 °F /  9.4 °C 29.8 °F /  -1.2 °C 30in /  1016.6hPa Calm   5.9mph /  9.5km/h 47.5% 0in /  0.0mm
11:39 49.3 °F /  9.6 °C 29.5 °F /  -1.4 °C 30in /  1016.4hPa Oeste 1.7mph /  2.8km/h 6.9mph /  11.1km/h 46.1% 0in /  0.0mm
11:44 49.8 °F /  9.9 °C 29.1 °F /  -1.6 °C 30in /  1016.4hPa OSO 3.1mph /  5km/h 10.7mph /  17.2km/h 44.8% 0in /  0.0mm
11:49 50.4 °F /  10.2 °C 29.3 °F /  -1.5 °C 30in /  1016.4hPa Oeste 3.8mph /  6.1km/h 11mph /  17.7km/h 44% 0in /  0.0mm
11:54 50.5 °F /  10.3 °C 29.5 °F /  -1.4 °C 30in /  1016.2hPa Oeste 4.3mph /  6.9km/h 8mph /  12.9km/h 44% 0in /  0.0mm
11:59 50.9 °F /  10.5 °C 29.5 °F /  -1.4 °C 30in /  1016.2hPa OSO 4.3mph /  6.9km/h 8.1mph /  13km/h 43.5% 0in /  0.0mm
12:04 51.4 °F /  10.8 °C 29.5 °F /  -1.4 °C 30in /  1016.2hPa OSO 4.3mph /  6.9km/h 8mph /  12.9km/h 42.7% 0in /  0.0mm
12:09 51.8 °F /  11 °C 29.7 °F /  -1.3 °C 30in /  1016.0hPa OSO 4.3mph /  6.9km/h 7mph /  11.3km/h 42.3% 0in /  0.0mm
12:14 52.2 °F /  11.2 °C 29.8 °F /  -1.2 °C 30in /  1016.0hPa OSO 4.3mph /  6.9km/h 8.1mph /  13km/h 41.9% 0in /  0.0mm
12:19 52.5 °F /  11.4 °C 29.5 °F /  -1.4 °C 30in /  1016.0hPa OSO 4.3mph /  6.9km/h 8mph /  12.9km/h 41% 0in /  0.0mm
12:24 52.9 °F /  11.6 °C 29.5 °F /  -1.4 °C 30in /  1015.7hPa OSO 4.3mph /  6.9km/h 11.4mph /  18.3km/h 40.6% 0in /  0.0mm
12:29 53.2 °F /  11.8 °C 29.5 °F /  -1.4 °C 30in /  1015.7hPa OSO 5mph /  8km/h 12mph /  19.3km/h 40% 0in /  0.0mm
12:34 53.4 °F /  11.9 °C 29.7 °F /  -1.3 °C 30in /  1015.7hPa OSO 5.4mph /  8.7km/h 12mph /  19.3km/h 39.9% 0in /  0.0mm
12:39 53.8 °F /  12.1 °C 29.1 °F /  -1.6 °C 30in /  1015.4hPa OSO 5.4mph /  8.7km/h 14mph /  22.5km/h 38.6% 0in /  0.0mm
12:44 54 °F /  12.2 °C 28.9 °F /  -1.7 °C 30in /  1015.4hPa OSO 5.4mph /  8.7km/h 14mph /  22.5km/h 37.9% 0in /  0.0mm
12:49 54.1 °F /  12.3 °C 28.9 °F /  -1.7 °C 30in /  1015.4hPa OSO 6.6mph /  10.7km/h 14mph /  22.5km/h 37.9% 0in /  0.0mm
12:54 54.1 °F /  12.3 °C 28.6 °F /  -1.9 °C 30in /  1015.1hPa OSO 7.6mph /  12.2km/h 15mph /  24.1km/h 37.2% 0in /  0.0mm
12:59 54.1 °F /  12.3 °C 28.4 °F /  -2 °C 30in /  1015.1hPa OSO 7.5mph /  12km/h 15mph /  24.1km/h 37% 0in /  0.0mm
13:04 54.3 °F /  12.4 °C 28.6 °F /  -1.9 °C 30in /  1015.1hPa OSO 7.4mph /  11.9km/h 15mph /  24.1km/h 37% 0in /  0.0mm
13:09 54.3 °F /  12.4 °C 28.6 °F /  -1.9 °C 30in /  1014.8hPa OSO 8mph /  12.9km/h 15mph /  24.1km/h 36.9% 0in /  0.0mm
13:14 54.3 °F /  12.4 °C 28.6 °F /  -1.9 °C 30in /  1014.8hPa OSO 8.5mph /  13.7km/h 15.2mph /  24.5km/h 36.9% 0in /  0.0mm
13:19 54.5 °F /  12.5 °C 28.6 °F /  -1.9 °C 30in /  1014.8hPa OSO 8mph /  12.9km/h 15mph /  24.1km/h 36.9% 0in /  0.0mm
13:24 54.7 °F /  12.6 °C 28.6 °F /  -1.9 °C 30in /  1014.4hPa OSO 7.6mph /  12.2km/h 15mph /  24.1km/h 36.5% 0in /  0.0mm
13:29 54.9 °F /  12.7 °C 28.8 °F /  -1.8 °C 30in /  1014.4hPa SO 7.6mph /  12.2km/h 15mph /  24.1km/h 36.7% 0in /  0.0mm
13:34 55 °F /  12.8 °C 28.9 °F /  -1.7 °C 30in /  1014.4hPa SO 7.6mph /  12.2km/h 14mph /  22.5km/h 36.6% 0in /  0.0mm
13:39 55 °F /  12.8 °C 28.9 °F /  -1.7 °C 29.9in /  1014.0hPa OSO 7.2mph /  11.6km/h 14mph /  22.5km/h 36.7% 0in /  0.0mm
13:44 55 °F /  12.8 °C 29.3 °F /  -1.5 °C 29.9in /  1014.0hPa SO 6.9mph /  11.1km/h 14mph /  22.5km/h 37% 0in /  0.0mm
13:49 55.2 °F /  12.9 °C 29.3 °F /  -1.5 °C 29.9in /  1014.0hPa OSO 6.9mph /  11.1km/h 12.7mph /  20.4km/h 37% 0in /  0.0mm
13:54 55.4 °F /  13 °C 29.5 °F /  -1.4 °C 29.9in /  1013.6hPa OSO 6.9mph /  11.1km/h 13mph /  20.9km/h 36.9% 0in /  0.0mm
13:59 55.8 °F /  13.2 °C 28.9 °F /  -1.7 °C 29.9in /  1013.6hPa OSO 7.3mph /  11.8km/h 16.3mph /  26.2km/h 35.6% 0in /  0.0mm
14:04 55.9 °F /  13.3 °C 29.3 °F /  -1.5 °C 29.9in /  1013.6hPa Oeste 7.6mph /  12.2km/h 16mph /  25.7km/h 36% 0in /  0.0mm
14:09 55.9 °F /  13.3 °C 29.3 °F /  -1.5 °C 29.9in /  1013.3hPa Oeste 8.1mph /  13.1km/h 14mph /  22.5km/h 36% 0in /  0.0mm
14:14 55.9 °F /  13.3 °C 29.3 °F /  -1.5 °C 29.9in /  1013.3hPa SO 8.5mph /  13.7km/h 14mph /  22.5km/h 36% 0in /  0.0mm
14:19 55.8 °F /  13.2 °C 29.1 °F /  -1.6 °C 29.9in /  1013.3hPa SSO 7.6mph /  12.2km/h 13mph /  20.9km/h 36% 0in /  0.0mm
14:24 55.6 °F /  13.1 °C 28.9 °F /  -1.7 °C 29.9in /  1012.9hPa SSO 6.9mph /  11.1km/h 13mph /  20.9km/h 36% 0in /  0.0mm
14:29 55.2 °F /  12.9 °C 29.1 °F /  -1.6 °C 29.9in /  1012.9hPa SSO 7.8mph /  12.6km/h 13mph /  20.9km/h 36.4% 0in /  0.0mm
14:34 55.2 °F /  12.9 °C 29.5 °F /  -1.4 °C 29.9in /  1012.9hPa SSO 8.5mph /  13.7km/h 13mph /  20.9km/h 37% 0in /  0.0mm
14:39 55.2 °F /  12.9 °C 29.7 °F /  -1.3 °C 29.9in /  1012.7hPa SO 7.5mph /  12.1km/h 13mph /  20.9km/h 37.3% 0in /  0.0mm
14:44 55.4 °F /  13 °C 29.7 °F /  -1.3 °C 29.9in /  1012.7hPa SO 6.9mph /  11.1km/h 13.8mph /  22.2km/h 37.4% 0in /  0.0mm
14:49 55.4 °F /  13 °C 29.5 °F /  -1.4 °C 29.9in /  1012.7hPa SO 7.2mph /  11.6km/h 14mph /  22.5km/h 37% 0in /  0.0mm
14:54 55.6 °F /  13.1 °C 29.7 °F /  -1.3 °C 29.9in /  1012.3hPa SO 7.4mph /  11.9km/h 12mph /  19.3km/h 37% 0in /  0.0mm
14:59 55.6 °F /  13.1 °C 29.7 °F /  -1.3 °C 29.9in /  1012.3hPa SO 7.1mph /  11.4km/h 14.5mph /  23.3km/h 37% 0in /  0.0mm
15:04 55.6 °F /  13.1 °C 29.7 °F /  -1.3 °C 29.9in /  1012.3hPa SO 6.9mph /  11.1km/h 15mph /  24.1km/h 37% 0in /  0.0mm
15:09 55.6 °F /  13.1 °C 29.7 °F /  -1.3 °C 29.9in /  1012.3hPa SO 7.6mph /  12.3km/h 13mph /  20.9km/h 37% 0in /  0.0mm
15:14 55.4 °F /  13 °C 29.5 °F /  -1.4 °C 29.9in /  1012.3hPa SO 8.1mph /  13km/h 13mph /  20.9km/h 37% 0in /  0.0mm
15:19 55.6 °F /  13.1 °C 29.7 °F /  -1.3 °C 29.9in /  1012.3hPa SO 7.1mph /  11.5km/h 13.8mph /  22.2km/h 37% 0in /  0.0mm
15:24 55.8 °F /  13.2 °C 29.8 °F /  -1.2 °C 29.9in /  1012.1hPa OSO 6.4mph /  10.3km/h 15mph /  24.1km/h 37% 0in /  0.0mm
15:29 56.3 °F /  13.5 °C 30 °F /  -1.1 °C 29.9in /  1012.1hPa Oeste 7mph /  11.2km/h 15.2mph /  24.5km/h 36.4% 0in /  0.0mm
15:34 56.8 °F /  13.8 °C 30 °F /  -1.1 °C 29.9in /  1012.1hPa Oeste 7.4mph /  11.9km/h 20.7mph /  33.3km/h 36% 0in /  0.0mm
15:39 56.8 °F /  13.8 °C 30 °F /  -1.1 °C 29.9in /  1012.0hPa Oeste 8.4mph /  13.6km/h 21mph /  33.8km/h 35.8% 0in /  0.0mm
15:44 57 °F /  13.9 °C 30.2 °F /  -1 °C 29.9in /  1012.0hPa Oeste 9.2mph /  14.8km/h 18mph /  29km/h 36% 0in /  0.0mm
15:49 57 °F /  13.9 °C 30.2 °F /  -1 °C 29.9in /  1012.0hPa ONO 8.9mph /  14.4km/h 15.2mph /  24.5km/h 35.9% 0in /  0.0mm
15:54 57 °F /  13.9 °C 30.4 °F /  -0.9 °C 29.9in /  1011.9hPa ONO 8.7mph /  14km/h 16.3mph /  26.2km/h 36% 0in /  0.0mm
15:59 56.8 °F /  13.8 °C 30.2 °F /  -1 °C 29.9in /  1011.9hPa ONO 9.6mph /  15.4km/h 19.7mph /  31.7km/h 36% 0in /  0.0mm
16:04 56.8 °F /  13.8 °C 30 °F /  -1.1 °C 29.9in /  1011.9hPa ONO 10mph /  16.1km/h 20mph /  32.2km/h 36% 0in /  0.0mm
16:09 56.8 °F /  13.8 °C 30 °F /  -1.1 °C 29.9in /  1011.7hPa ONO 10.4mph /  16.8km/h 19mph /  30.6km/h 36% 0in /  0.0mm
16:14 56.8 °F /  13.8 °C 30 °F /  -1.1 °C 29.9in /  1011.7hPa ONO 10.7mph /  17.2km/h 19mph /  30.6km/h 36% 0in /  0.0mm
16:19 56.8 °F /  13.8 °C 30.2 °F /  -1 °C 29.9in /  1011.7hPa ONO 10.3mph /  16.6km/h 19mph /  30.6km/h 36% 0in /  0.0mm
16:24 57 °F /  13.9 °C 30.4 °F /  -0.9 °C 29.9in /  1011.7hPa ONO 10mph /  16.1km/h 20.7mph /  33.3km/h 36% 0in /  0.0mm
16:29 57 °F /  13.9 °C 30.4 °F /  -0.9 °C 29.9in /  1011.7hPa ONO 10.1mph /  16.3km/h 21mph /  33.8km/h 36% 0in /  0.0mm
16:34 57 °F /  13.9 °C 30.4 °F /  -0.9 °C 29.9in /  1011.7hPa Oeste 10.2mph /  16.4km/h 14mph /  22.5km/h 36% 0in /  0.0mm
16:39 57 °F /  13.9 °C 30.4 °F /  -0.9 °C 29.9in /  1011.7hPa ONO 8mph /  12.8km/h 15.9mph /  25.6km/h 36% 0in /  0.0mm
16:44 57 °F /  13.9 °C 30.4 °F /  -0.9 °C 29.9in /  1011.7hPa ONO 6.4mph /  10.3km/h 19mph /  30.6km/h 36% 0in /  0.0mm
16:49 57 °F /  13.9 °C 30.4 °F /  -0.9 °C 29.9in /  1011.7hPa ONO 8.3mph /  13.3km/h 19mph /  30.6km/h 36% 0in /  0.0mm
16:54 57 °F /  13.9 °C 30.4 °F /  -0.9 °C 29.9in /  1011.6hPa NO 9.7mph /  15.6km/h 16.8mph /  27km/h 36% 0in /  0.0mm
16:59 57 °F /  13.9 °C 30.4 °F /  -0.9 °C 29.9in /  1011.6hPa ONO 9.7mph /  15.6km/h 17.5mph /  28.2km/h 36% 0in /  0.0mm
17:04 57 °F /  13.9 °C 30.4 °F /  -0.9 °C 29.9in /  1011.6hPa ONO 9.7mph /  15.6km/h 17.5mph /  28.2km/h 36% 0in /  0.0mm
17:09 57 °F /  13.9 °C 30.4 °F /  -0.9 °C 29.9in /  1011.5hPa ONO 10.3mph /  16.6km/h 17mph /  27.4km/h 36.1% 0in /  0.0mm
17:14 57 °F /  13.9 °C 30.4 °F /  -0.9 °C 29.9in /  1011.5hPa ONO 10.7mph /  17.2km/h 16mph /  25.7km/h 36.1% 0in /  0.0mm
17:19 57 °F /  13.9 °C 30.7 °F /  -0.7 °C 29.9in /  1011.5hPa OSO 10.1mph /  16.3km/h 16mph /  25.7km/h 36.7% 0in /  0.0mm
17:24 56.7 °F /  13.7 °C 31.1 °F /  -0.5 °C 29.9in /  1011.4hPa SO 9.7mph /  15.6km/h 13mph /  20.9km/h 37.7% 0in /  0.0mm
17:29 56.1 °F /  13.4 °C 31.1 °F /  -0.5 °C 29.9in /  1011.4hPa SO 6.4mph /  10.3km/h 8mph /  12.9km/h 38.4% 0in /  0.0mm
17:34 55.9 °F /  13.3 °C 31.3 °F /  -0.4 °C 29.9in /  1011.4hPa SO 4.3mph /  6.9km/h 7mph /  11.3km/h 39.2% 0in /  0.0mm
17:39 55.8 °F /  13.2 °C 31.6 °F /  -0.2 °C 29.9in /  1011.3hPa SO 4.3mph /  6.9km/h 7.4mph /  11.9km/h 40% 0in /  0.0mm
17:44 55.6 °F /  13.1 °C 31.6 °F /  -0.2 °C 29.9in /  1011.3hPa SO 4.3mph /  6.9km/h 7mph /  11.3km/h 40% 0in /  0.0mm
17:49 55.6 °F /  13.1 °C 31.6 °F /  -0.2 °C 29.9in /  1011.3hPa Oeste 4.2mph /  6.7km/h 6.9mph /  11.1km/h 39.9% 0in /  0.0mm
17:54 55.8 °F /  13.2 °C 31.1 °F /  -0.5 °C 29.9in /  1011.1hPa Oeste 4mph /  6.5km/h 12.3mph /  19.8km/h 38.9% 0in /  0.0mm
17:59 55.9 °F /  13.3 °C 30.2 °F /  -1 °C 29.9in /  1011.1hPa Oeste 4.9mph /  7.9km/h 23mph /  37km/h 37.2% 0in /  0.0mm
18:04 56.3 °F /  13.5 °C 29.7 °F /  -1.3 °C 29.9in /  1011.1hPa ONO 5.4mph /  8.7km/h 23mph /  37km/h 36% 0in /  0.0mm
18:09 56.3 °F /  13.5 °C 29.7 °F /  -1.3 °C 29.9in /  1011.1hPa ONO 8.9mph /  14.4km/h 22mph /  35.4km/h 36% 0in /  0.0mm
18:14 55.9 °F /  13.3 °C 30 °F /  -1.1 °C 29.9in /  1011.1hPa ONO 11.8mph /  19km/h 16.1mph /  25.9km/h 36.8% 0in /  0.0mm
18:19 55.8 °F /  13.2 °C 30 °F /  -1.1 °C 29.9in /  1011.3hPa ONO 9.6mph /  15.5km/h 16mph /  25.7km/h 37.1% 0in /  0.0mm
18:24 55.8 °F /  13.2 °C 30.4 °F /  -0.9 °C 29.9in /  1011.3hPa ONO 8.1mph /  13km/h 14mph /  22.5km/h 37.8% 0in /  0.0mm
18:29 55.6 °F /  13.1 °C 30.4 °F /  -0.9 °C 29.9in /  1011.3hPa ONO 6.2mph /  9.9km/h 20.7mph /  33.3km/h 38% 0in /  0.0mm
18:34 55.6 °F /  13.1 °C 30.4 °F /  -0.9 °C 29.9in /  1011.3hPa ONO 4.7mph /  7.6km/h 21mph /  33.8km/h 38% 0in /  0.0mm
18:39 55.4 °F /  13 °C 30.2 °F /  -1 °C 29.9in /  1010.9hPa ONO 7.6mph /  12.2km/h 17.3mph /  27.8km/h 38% 0in /  0.0mm
18:44 55.2 °F /  12.9 °C 30.6 °F /  -0.8 °C 29.9in /  1010.9hPa ONO 9.7mph /  15.6km/h 15mph /  24.1km/h 38.7% 0in /  0.0mm
18:49 55.2 °F /  12.9 °C 30.7 °F /  -0.7 °C 29.9in /  1011.1hPa ONO 8.3mph /  13.4km/h 15mph /  24.1km/h 39% 0in /  0.0mm
18:54 55 °F /  12.8 °C 30.6 °F /  -0.8 °C 29.9in /  1011.1hPa ONO 7.4mph /  11.9km/h 15mph /  24.1km/h 39% 0in /  0.0mm
18:59 54.9 °F /  12.7 °C 30.9 °F /  -0.6 °C 29.9in /  1011.1hPa Oeste 6.7mph /  10.8km/h 13mph /  20.9km/h 39.8% 0in /  0.0mm
19:04 54.9 °F /  12.7 °C 30.9 °F /  -0.6 °C 29.9in /  1011.1hPa Oeste 6.4mph /  10.3km/h 10mph /  16.1km/h 40% 0in /  0.0mm
19:09 54.7 °F /  12.6 °C 30.9 °F /  -0.6 °C 29.9in /  1011.1hPa Oeste 5.4mph /  8.7km/h 10.7mph /  17.2km/h 40.3% 0in /  0.0mm
19:14 54.5 °F /  12.5 °C 31.3 °F /  -0.4 °C 29.9in /  1011.1hPa Oeste 4.7mph /  7.6km/h 12.7mph /  20.4km/h 41% 0in /  0.0mm
19:19 54.5 °F /  12.5 °C 31.3 °F /  -0.4 °C 29.9in /  1011.2hPa Oeste 5.7mph /  9.2km/h 13mph /  20.9km/h 41% 0in /  0.0mm
19:24 54.5 °F /  12.5 °C 31.3 °F /  -0.4 °C 29.9in /  1011.2hPa OSO 6.4mph /  10.3km/h 16.3mph /  26.2km/h 41% 0in /  0.0mm
19:29 54.5 °F /  12.5 °C 31.3 °F /  -0.4 °C 29.9in /  1011.2hPa OSO 6.4mph /  10.3km/h 16.1mph /  25.9km/h 41% 0in /  0.0mm
19:34 54.7 °F /  12.6 °C 31.5 °F /  -0.3 °C 29.9in /  1011.2hPa Oeste 6.4mph /  10.3km/h 16mph /  25.7km/h 41% 0in /  0.0mm
19:39 54.7 °F /  12.6 °C 31.5 °F /  -0.3 °C 29.9in /  1011.2hPa Oeste 7.1mph /  11.4km/h 12mph /  19.3km/h 41% 0in /  0.0mm
19:44 54.7 °F /  12.6 °C 31.5 °F /  -0.3 °C 29.9in /  1011.2hPa Oeste 7.6mph /  12.2km/h 12mph /  19.3km/h 41% 0in /  0.0mm
19:49 54.7 °F /  12.6 °C 31.5 °F /  -0.3 °C 29.9in /  1011.2hPa OSO 6.6mph /  10.7km/h 10mph /  16.1km/h 41% 0in /  0.0mm
19:54 54.7 °F /  12.6 °C 31.5 °F /  -0.3 °C 29.9in /  1011.2hPa OSO 5.9mph /  9.5km/h 10mph /  16.1km/h 41% 0in /  0.0mm
19:59 54.9 °F /  12.7 °C 31.6 °F /  -0.2 °C 29.9in /  1011.2hPa OSO 6.1mph /  9.8km/h 14mph /  22.5km/h 41.3% 0in /  0.0mm
20:04 54.9 °F /  12.7 °C 32.2 °F /  0.1 °C 29.9in /  1011.4hPa Oeste 6.2mph /  10km/h 15mph /  24.1km/h 42% 0in /  0.0mm
20:09 54.9 °F /  12.7 °C 32.7 °F /  0.4 °C 29.9in /  1011.4hPa ONO 7.5mph /  12.1km/h 21.3mph /  34.3km/h 43% 0in /  0.0mm
20:14 54.9 °F /  12.7 °C 32.7 °F /  0.4 °C 29.9in /  1011.4hPa ONO 8.5mph /  13.7km/h 21mph /  33.8km/h 43% 0in /  0.0mm
20:19 54.9 °F /  12.7 °C 33.3 °F /  0.7 °C 29.9in /  1011.4hPa Oeste 9.8mph /  15.8km/h 23mph /  37km/h 44% 0in /  0.0mm
20:24 54.7 °F /  12.6 °C 33.3 °F /  0.7 °C 29.9in /  1011.2hPa Oeste 10.7mph /  17.2km/h 23mph /  37km/h 44% 0in /  0.0mm
20:29 54.7 °F /  12.6 °C 33.4 °F /  0.8 °C 29.9in /  1011.2hPa Oeste 10.1mph /  16.3km/h 19mph /  30.6km/h 44.4% 0in /  0.0mm
20:34 54.5 °F /  12.5 °C 33.6 °F /  0.9 °C 29.9in /  1011.2hPa Oeste 9.7mph /  15.6km/h 19mph /  30.6km/h 45% 0in /  0.0mm
20:39 54.5 °F /  12.5 °C 33.6 °F /  0.9 °C 29.9in /  1011.1hPa ONO 10.8mph /  17.4km/h 19.7mph /  31.7km/h 45% 0in /  0.0mm
20:44 54.3 °F /  12.4 °C 33.8 °F /  1 °C 29.9in /  1011.1hPa ONO 11.8mph /  19km/h 20mph /  32.2km/h 45.8% 0in /  0.0mm
20:49 54.3 °F /  12.4 °C 34 °F /  1.1 °C 29.9in /  1011.2hPa Oeste 11.1mph /  17.9km/h 20mph /  32.2km/h 46% 0in /  0.0mm
20:54 54.1 °F /  12.3 °C 33.8 °F /  1 °C 29.9in /  1011.2hPa ONO 10.7mph /  17.2km/h 17.8mph /  28.6km/h 46% 0in /  0.0mm
20:59 54.1 °F /  12.3 °C 34 °F /  1.1 °C 29.9in /  1011.2hPa Oeste 10.3mph /  16.5km/h 19.6mph /  31.5km/h 46.2% 0in /  0.0mm
21:04 54.1 °F /  12.3 °C 34.3 °F /  1.3 °C 29.9in /  1011.2hPa Oeste 10mph /  16.1km/h 20mph /  32.2km/h 47% 0in /  0.0mm
21:09 54.1 °F /  12.3 °C 34.3 °F /  1.3 °C 29.9in /  1011.1hPa Oeste 10.9mph /  17.5km/h 20mph /  32.2km/h 47% 0in /  0.0mm
21:14 54.1 °F /  12.3 °C 34.3 °F /  1.3 °C 29.9in /  1011.1hPa Oeste 11.4mph /  18.4km/h 19mph /  30.6km/h 47% 0in /  0.0mm
21:19 54 °F /  12.2 °C 34.2 °F /  1.2 °C 29.9in /  1011.1hPa ONO 10.6mph /  17km/h 18.5mph /  29.8km/h 47% 0in /  0.0mm
21:24 54 °F /  12.2 °C 34.5 °F /  1.4 °C 29.9in /  1010.9hPa ONO 10mph /  16.1km/h 19mph /  30.6km/h 47.8% 0in /  0.0mm
21:29 54 °F /  12.2 °C 34.7 °F /  1.5 °C 29.9in /  1010.9hPa Oeste 10mph /  16.1km/h 18.4mph /  29.6km/h 48% 0in /  0.0mm
21:34 53.8 °F /  12.1 °C 34.5 °F /  1.4 °C 29.9in /  1010.9hPa Oeste 10mph /  16.1km/h 21.9mph /  35.2km/h 48% 0in /  0.0mm
21:39 53.8 °F /  12.1 °C 34.5 °F /  1.4 °C 29.9in /  1010.9hPa Oeste 10.1mph /  16.3km/h 22mph /  35.4km/h 48% 0in /  0.0mm
21:44 53.8 °F /  12.1 °C 34.9 °F /  1.6 °C 29.9in /  1010.9hPa Oeste 10.2mph /  16.4km/h 16.1mph /  25.9km/h 48.6% 0in /  0.0mm
21:49 53.6 °F /  12 °C 34.9 °F /  1.6 °C 29.9in /  1010.9hPa Oeste 9.2mph /  14.8km/h 19.6mph /  31.5km/h 49% 0in /  0.0mm
21:54 53.6 °F /  12 °C 34.9 °F /  1.6 °C 29.9in /  1010.8hPa Oeste 8.5mph /  13.7km/h 20mph /  32.2km/h 49% 0in /  0.0mm
21:59 53.4 °F /  11.9 °C 34.9 °F /  1.6 °C 29.9in /  1010.8hPa Oeste 8.2mph /  13.2km/h 15mph /  24.1km/h 49% 0in /  0.0mm
22:04 53.4 °F /  11.9 °C 34.7 °F /  1.5 °C 29.9in /  1010.8hPa ONO 8.1mph /  13km/h 20.7mph /  33.3km/h 49% 0in /  0.0mm
22:09 53.4 °F /  11.9 °C 34.7 °F /  1.5 °C 29.8in /  1010.7hPa Oeste 8.1mph /  13km/h 21mph /  33.8km/h 49% 0in /  0.0mm
22:14 53.4 °F /  11.9 °C 34.7 °F /  1.5 °C 29.8in /  1010.7hPa Oeste 8.1mph /  13km/h 16mph /  25.7km/h 49% 0in /  0.0mm
22:19 53.4 °F /  11.9 °C 34.7 °F /  1.5 °C 29.8in /  1010.7hPa Oeste 7.7mph /  12.4km/h 14mph /  22.5km/h 49% 0in /  0.0mm
22:24 53.4 °F /  11.9 °C 35.1 °F /  1.7 °C 29.8in /  1010.7hPa OSO 7.4mph /  11.9km/h 10mph /  16.1km/h 49.7% 0in /  0.0mm
22:29 53.4 °F /  11.9 °C 35.2 °F /  1.8 °C 29.8in /  1010.7hPa OSO 5.8mph /  9.4km/h 10mph /  16.1km/h 50% 0in /  0.0mm
22:34 53.2 °F /  11.8 °C 35.1 °F /  1.7 °C 29.9in /  1010.8hPa OSO 4.7mph /  7.6km/h 8.1mph /  13km/h 50% 0in /  0.0mm
22:39 53.2 °F /  11.8 °C 35.1 °F /  1.7 °C 29.9in /  1010.8hPa OSO 4.1mph /  6.6km/h 8mph /  12.9km/h 50% 0in /  0.0mm
22:44 53.2 °F /  11.8 °C 35.1 °F /  1.7 °C 29.9in /  1010.8hPa SO 3.6mph /  5.8km/h 9.2mph /  14.8km/h 50% 0in /  0.0mm
22:49 53.1 °F /  11.7 °C 34.9 °F /  1.6 °C 29.9in /  1010.8hPa SO 4.5mph /  7.2km/h 9.2mph /  14.8km/h 50% 0in /  0.0mm
22:54 53.1 °F /  11.7 °C 34.9 °F /  1.6 °C 29.8in /  1010.6hPa SSO 5.2mph /  8.4km/h 9mph /  14.5km/h 49.8% 0in /  0.0mm
22:59 53.1 °F /  11.7 °C 34.7 °F /  1.5 °C 29.8in /  1010.6hPa OSO 3.9mph /  6.2km/h 6.2mph /  10km/h 49.8% 0in /  0.0mm
23:04 52.9 °F /  11.6 °C 34.7 °F /  1.5 °C 29.8in /  1010.7hPa SO 3.1mph /  5km/h 6mph /  9.7km/h 50% 0in /  0.0mm
23:09 52.7 °F /  11.5 °C 34.3 °F /  1.3 °C 29.8in /  1010.7hPa SE 3mph /  4.8km/h 5mph /  8km/h 49.2% 0in /  0.0mm
23:14 52.5 °F /  11.4 °C 34 °F /  1.1 °C 29.8in /  1010.7hPa SE 2.9mph /  4.7km/h 5.2mph /  8.4km/h 49% 0in /  0.0mm
23:19 52.3 °F /  11.3 °C 34 °F /  1.1 °C 29.8in /  1010.7hPa SSE 3mph /  4.8km/h 7.4mph /  11.9km/h 49.6% 0in /  0.0mm
23:24 52.3 °F /  11.3 °C 34.2 °F /  1.2 °C 29.8in /  1010.7hPa SE 3.1mph /  5km/h 7mph /  11.3km/h 50% 0in /  0.0mm
23:29 52.2 °F /  11.2 °C 34.2 °F /  1.2 °C 29.8in /  1010.7hPa SSE 3.4mph /  5.5km/h 6mph /  9.7km/h 50% 0in /  0.0mm
23:34 52.2 °F /  11.2 °C 34.5 °F /  1.4 °C 29.9in /  1010.8hPa SO 3.6mph /  5.8km/h 5mph /  8km/h 51% 0in /  0.0mm
23:39 52.2 °F /  11.2 °C 34.5 °F /  1.4 °C 29.9in /  1010.8hPa Sur 2.7mph /  4.3km/h 5mph /  8km/h 51% 0in /  0.0mm
23:44 52.3 °F /  11.3 °C 35.6 °F /  2 °C 29.9in /  1010.8hPa NNE 2mph /  3.2km/h 15mph /  24.1km/h 52.7% 0in /  0.0mm
23:49 52.9 °F /  11.6 °C 36.1 °F /  2.3 °C 29.9in /  1010.8hPa ONO 4.5mph /  7.3km/h 18.4mph /  29.6km/h 52.6% 0in /  0.0mm
23:54 53.2 °F /  11.8 °C 36.1 °F /  2.3 °C 29.8in /  1010.6hPa ONO 6.4mph /  10.3km/h 18mph /  29km/h 52% 0in /  0.0mm
23:59 53.4 °F /  11.9 °C 36.1 °F /  2.3 °C 29.8in /  1010.6hPa NO 8.7mph /  14km/h 17.3mph /  27.8km/h 52% 0in /  0.0mm
Murcia-Puente Tocinos, España
Compliments of Weather Underground - 3 mb

La estación de MeteoMurcia.com, publica sus datos en los siguientes proyectos:

Weather Underground PWS IMURCIAP2 Meteoclimatic www.awekas.at

W3Counter
Web Analytics